sensor_id;sensor_type;location;lat;lon;timestamp;temperature;humidity
46508;DHT22;32223;53.654;10.014;2023-07-13T00:01:30;15.40;99.90
46508;DHT22;32223;53.654;10.014;2023-07-13T00:03:57;15.40;99.90
46508;DHT22;32223;53.654;10.014;2023-07-13T00:06:23;15.40;99.90
46508;DHT22;32223;53.654;10.014;2023-07-13T00:08:48;15.30;99.90
46508;DHT22;32223;53.654;10.014;2023-07-13T00:11:16;15.30;99.90
46508;DHT22;32223;53.654;10.014;2023-07-13T00:13:43;15.30;99.90
46508;DHT22;32223;53.654;10.014;2023-07-13T00:16:10;15.20;99.90
46508;DHT22;32223;53.654;10.014;2023-07-13T00:18:36;15.20;99.90
46508;DHT22;32223;53.654;10.014;2023-07-13T00:21:03;15.10;99.90
46508;DHT22;32223;53.654;10.014;2023-07-13T00:23:37;15.10;99.90
46508;DHT22;32223;53.654;10.014;2023-07-13T00:26:04;15.10;99.90
46508;DHT22;32223;53.654;10.014;2023-07-13T00:28:30;15.10;99.90
46508;DHT22;32223;53.654;10.014;2023-07-13T00:30:55;15.00;99.90
46508;DHT22;32223;53.654;10.014;2023-07-13T00:33:21;15.00;99.90
46508;DHT22;32223;53.654;10.014;2023-07-13T00:35:48;15.00;99.90
46508;DHT22;32223;53.654;10.014;2023-07-13T00:38:14;14.90;99.90
46508;DHT22;32223;53.654;10.014;2023-07-13T00:40:40;14.90;99.90
46508;DHT22;32223;53.654;10.014;2023-07-13T00:43:15;14.80;99.90
46508;DHT22;32223;53.654;10.014;2023-07-13T00:48:12;14.80;99.90
46508;DHT22;32223;53.654;10.014;2023-07-13T00:50:40;14.80;99.90
46508;DHT22;32223;53.654;10.014;2023-07-13T00:53:06;14.80;99.90
46508;DHT22;32223;53.654;10.014;2023-07-13T00:55:33;14.80;99.90
46508;DHT22;32223;53.654;10.014;2023-07-13T00:57:59;14.80;99.90
46508;DHT22;32223;53.654;10.014;2023-07-13T01:00:25;14.70;99.90
46508;DHT22;32223;53.654;10.014;2023-07-13T01:02:52;14.70;99.90
46508;DHT22;32223;53.654;10.014;2023-07-13T01:05:20;14.70;99.90
46508;DHT22;32223;53.654;10.014;2023-07-13T01:07:48;14.60;99.90
46508;DHT22;32223;53.654;10.014;2023-07-13T01:10:14;14.70;99.90
46508;DHT22;32223;53.654;10.014;2023-07-13T01:12:40;14.70;99.90
46508;DHT22;32223;53.654;10.014;2023-07-13T01:15:48;14.60;99.90
46508;DHT22;32223;53.654;10.014;2023-07-13T01:18:23;14.60;99.90
46508;DHT22;32223;53.654;10.014;2023-07-13T01:21:00;14.60;99.90
46508;DHT22;32223;53.654;10.014;2023-07-13T01:23:26;14.60;99.90
46508;DHT22;32223;53.654;10.014;2023-07-13T01:25:53;14.60;99.90
46508;DHT22;32223;53.654;10.014;2023-07-13T01:28:21;14.60;99.90
46508;DHT22;32223;53.654;10.014;2023-07-13T01:30:47;14.60;99.90
46508;DHT22;32223;53.654;10.014;2023-07-13T01:33:14;14.60;99.90
46508;DHT22;32223;53.654;10.014;2023-07-13T01:35:40;14.60;99.90
46508;DHT22;32223;53.654;10.014;2023-07-13T01:38:07;14.60;99.90
46508;DHT22;32223;53.654;10.014;2023-07-13T01:40:34;14.70;99.90
46508;DHT22;32223;53.654;10.014;2023-07-13T01:43:00;14.70;99.90
46508;DHT22;32223;53.654;10.014;2023-07-13T01:45:26;14.70;99.90
46508;DHT22;32223;53.654;10.014;2023-07-13T01:47:52;14.70;99.90
46508;DHT22;32223;53.654;10.014;2023-07-13T01:50:17;14.70;99.90
46508;DHT22;32223;53.654;10.014;2023-07-13T01:52:43;14.70;99.90
46508;DHT22;32223;53.654;10.014;2023-07-13T01:55:08;14.70;99.90
46508;DHT22;32223;53.654;10.014;2023-07-13T01:57:34;14.70;99.90
46508;DHT22;32223;53.654;10.014;2023-07-13T02:00:03;14.80;99.90
46508;DHT22;32223;53.654;10.014;2023-07-13T02:02:30;14.80;99.90
46508;DHT22;32223;53.654;10.014;2023-07-13T02:04:56;14.80;99.90
46508;DHT22;32223;53.654;10.014;2023-07-13T02:07:21;14.80;99.90
46508;DHT22;32223;53.654;10.014;2023-07-13T02:09:47;14.80;99.90
46508;DHT22;32223;53.654;10.014;2023-07-13T02:12:13;14.80;99.90
46508;DHT22;32223;53.654;10.014;2023-07-13T02:14:38;14.80;99.90
46508;DHT22;32223;53.654;10.014;2023-07-13T02:17:04;14.80;99.90
46508;DHT22;32223;53.654;10.014;2023-07-13T02:19:30;14.70;99.90
46508;DHT22;32223;53.654;10.014;2023-07-13T02:21:56;14.70;99.90
46508;DHT22;32223;53.654;10.014;2023-07-13T02:24:21;14.70;99.90
46508;DHT22;32223;53.654;10.014;2023-07-13T02:26:47;14.70;99.90
46508;DHT22;32223;53.654;10.014;2023-07-13T02:29:13;14.80;99.90
46508;DHT22;32223;53.654;10.014;2023-07-13T02:31:39;14.80;99.90
46508;DHT22;32223;53.654;10.014;2023-07-13T02:34:05;14.80;99.90
46508;DHT22;32223;53.654;10.014;2023-07-13T02:36:31;14.80;99.90
46508;DHT22;32223;53.654;10.014;2023-07-13T02:39:00;14.80;99.90
46508;DHT22;32223;53.654;10.014;2023-07-13T02:41:26;14.70;99.90
46508;DHT22;32223;53.654;10.014;2023-07-13T02:43:52;14.70;99.90
46508;DHT22;32223;53.654;10.014;2023-07-13T02:46:18;14.70;99.90
46508;DHT22;32223;53.654;10.014;2023-07-13T02:48:45;14.70;99.90
46508;DHT22;32223;53.654;10.014;2023-07-13T02:51:11;14.70;99.90
46508;DHT22;32223;53.654;10.014;2023-07-13T02:53:37;14.70;99.90
46508;DHT22;32223;53.654;10.014;2023-07-13T02:56:04;14.70;99.90
46508;DHT22;32223;53.654;10.014;2023-07-13T02:58:30;14.70;99.90
46508;DHT22;32223;53.654;10.014;2023-07-13T03:00:56;14.70;99.90
46508;DHT22;32223;53.654;10.014;2023-07-13T03:03:21;14.70;99.90
46508;DHT22;32223;53.654;10.014;2023-07-13T03:05:47;14.70;99.90
46508;DHT22;32223;53.654;10.014;2023-07-13T03:08:15;14.80;99.90
46508;DHT22;32223;53.654;10.014;2023-07-13T03:10:41;14.80;99.90
46508;DHT22;32223;53.654;10.014;2023-07-13T03:13:07;14.70;99.90
46508;DHT22;32223;53.654;10.014;2023-07-13T03:15:33;14.70;99.90
46508;DHT22;32223;53.654;10.014;2023-07-13T03:17:58;14.70;99.90
46508;DHT22;32223;53.654;10.014;2023-07-13T03:20:24;14.70;99.90
46508;DHT22;32223;53.654;10.014;2023-07-13T03:22:49;14.70;99.90
46508;DHT22;32223;53.654;10.014;2023-07-13T03:25:15;14.70;99.90
46508;DHT22;32223;53.654;10.014;2023-07-13T03:27:41;14.70;99.90
46508;DHT22;32223;53.654;10.014;2023-07-13T03:30:07;14.60;99.90
46508;DHT22;32223;53.654;10.014;2023-07-13T03:32:33;14.60;99.90
46508;DHT22;32223;53.654;10.014;2023-07-13T03:34:58;14.60;99.90
46508;DHT22;32223;53.654;10.014;2023-07-13T03:37:24;14.60;99.90
46508;DHT22;32223;53.654;10.014;2023-07-13T03:39:50;14.70;99.90
46508;DHT22;32223;53.654;10.014;2023-07-13T03:42:16;14.60;99.90
46508;DHT22;32223;53.654;10.014;2023-07-13T03:44:42;14.60;99.90
46508;DHT22;32223;53.654;10.014;2023-07-13T03:47:11;14.60;99.90
46508;DHT22;32223;53.654;10.014;2023-07-13T03:49:36;14.70;99.90
46508;DHT22;32223;53.654;10.014;2023-07-13T03:52:02;14.70;99.90
46508;DHT22;32223;53.654;10.014;2023-07-13T03:54:28;14.70;99.90
46508;DHT22;32223;53.654;10.014;2023-07-13T03:56:53;14.70;99.90
46508;DHT22;32223;53.654;10.014;2023-07-13T03:59:19;14.70;99.90
46508;DHT22;32223;53.654;10.014;2023-07-13T04:01:45;14.70;99.90
46508;DHT22;32223;53.654;10.014;2023-07-13T04:04:10;14.70;99.90
46508;DHT22;32223;53.654;10.014;2023-07-13T04:06:37;14.70;99.90
46508;DHT22;32223;53.654;10.014;2023-07-13T04:09:03;14.70;99.90
46508;DHT22;32223;53.654;10.014;2023-07-13T04:11:31;14.70;99.90
46508;DHT22;32223;53.654;10.014;2023-07-13T04:13:57;14.70;99.90
46508;DHT22;32223;53.654;10.014;2023-07-13T04:16:23;14.70;99.90
46508;DHT22;32223;53.654;10.014;2023-07-13T04:18:50;14.70;99.90
46508;DHT22;32223;53.654;10.014;2023-07-13T04:21:16;14.70;99.90
46508;DHT22;32223;53.654;10.014;2023-07-13T04:23:42;14.60;99.90
46508;DHT22;32223;53.654;10.014;2023-07-13T04:26:08;14.60;99.90
46508;DHT22;32223;53.654;10.014;2023-07-13T04:28:34;14.60;99.90
46508;DHT22;32223;53.654;10.014;2023-07-13T04:31:00;14.60;99.90
46508;DHT22;32223;53.654;10.014;2023-07-13T04:33:27;14.60;99.90
46508;DHT22;32223;53.654;10.014;2023-07-13T04:35:54;14.70;99.90
46508;DHT22;32223;53.654;10.014;2023-07-13T04:38:27;14.60;99.90
46508;DHT22;32223;53.654;10.014;2023-07-13T04:40:55;14.80;99.90
46508;DHT22;32223;53.654;10.014;2023-07-13T04:43:21;14.80;99.90
46508;DHT22;32223;53.654;10.014;2023-07-13T04:45:47;14.80;99.90
46508;DHT22;32223;53.654;10.014;2023-07-13T04:48:13;14.80;99.90
46508;DHT22;32223;53.654;10.014;2023-07-13T04:50:39;14.90;99.90
46508;DHT22;32223;53.654;10.014;2023-07-13T04:53:04;14.90;99.90
46508;DHT22;32223;53.654;10.014;2023-07-13T04:55:31;14.90;99.90
46508;DHT22;32223;53.654;10.014;2023-07-13T04:57:57;15.00;99.90
46508;DHT22;32223;53.654;10.014;2023-07-13T05:00:24;15.00;99.90
46508;DHT22;32223;53.654;10.014;2023-07-13T05:02:50;15.10;99.90
46508;DHT22;32223;53.654;10.014;2023-07-13T05:05:15;15.20;99.90
46508;DHT22;32223;53.654;10.014;2023-07-13T05:07:41;15.30;99.90
46508;DHT22;32223;53.654;10.014;2023-07-13T05:10:07;15.40;99.90
46508;DHT22;32223;53.654;10.014;2023-07-13T05:12:33;15.40;99.90
46508;DHT22;32223;53.654;10.014;2023-07-13T05:14:59;15.50;99.90
46508;DHT22;32223;53.654;10.014;2023-07-13T05:17:24;15.60;99.90
46508;DHT22;32223;53.654;10.014;2023-07-13T05:19:50;15.80;99.90
46508;DHT22;32223;53.654;10.014;2023-07-13T05:22:15;15.80;99.90
46508;DHT22;32223;53.654;10.014;2023-07-13T05:24:41;15.80;99.90
46508;DHT22;32223;53.654;10.014;2023-07-13T05:27:06;16.00;99.90
46508;DHT22;32223;53.654;10.014;2023-07-13T05:29:32;16.10;99.90
46508;DHT22;32223;53.654;10.014;2023-07-13T05:31:58;16.20;99.90
46508;DHT22;32223;53.654;10.014;2023-07-13T05:34:23;16.40;99.90
46508;DHT22;32223;53.654;10.014;2023-07-13T05:36:49;16.50;99.90
46508;DHT22;32223;53.654;10.014;2023-07-13T05:39:15;16.60;99.90
46508;DHT22;32223;53.654;10.014;2023-07-13T05:41:41;16.60;99.90
46508;DHT22;32223;53.654;10.014;2023-07-13T05:44:07;16.60;99.90
46508;DHT22;32223;53.654;10.014;2023-07-13T05:46:32;16.50;99.90
46508;DHT22;32223;53.654;10.014;2023-07-13T05:48:58;16.40;99.90
46508;DHT22;32223;53.654;10.014;2023-07-13T05:51:23;16.30;99.90
46508;DHT22;32223;53.654;10.014;2023-07-13T05:53:49;16.40;99.90
46508;DHT22;32223;53.654;10.014;2023-07-13T05:56:15;16.40;99.90
46508;DHT22;32223;53.654;10.014;2023-07-13T05:58:40;16.40;99.90
46508;DHT22;32223;53.654;10.014;2023-07-13T06:01:11;16.40;99.90
46508;DHT22;32223;53.654;10.014;2023-07-13T06:03:37;16.40;99.90
46508;DHT22;32223;53.654;10.014;2023-07-13T06:06:07;16.40;99.90
46508;DHT22;32223;53.654;10.014;2023-07-13T06:08:33;16.40;99.90
46508;DHT22;32223;53.654;10.014;2023-07-13T06:11:20;16.40;99.90
46508;DHT22;32223;53.654;10.014;2023-07-13T06:13:46;16.40;99.90
46508;DHT22;32223;53.654;10.014;2023-07-13T06:16:12;16.50;99.90
46508;DHT22;32223;53.654;10.014;2023-07-13T06:18:39;16.50;99.90
46508;DHT22;32223;53.654;10.014;2023-07-13T06:21:23;16.50;99.90
46508;DHT22;32223;53.654;10.014;2023-07-13T06:23:51;16.50;99.90
46508;DHT22;32223;53.654;10.014;2023-07-13T06:26:18;16.60;99.90
46508;DHT22;32223;53.654;10.014;2023-07-13T06:28:44;16.60;99.90
46508;DHT22;32223;53.654;10.014;2023-07-13T06:31:11;16.60;99.90
46508;DHT22;32223;53.654;10.014;2023-07-13T06:33:37;16.60;99.90
46508;DHT22;32223;53.654;10.014;2023-07-13T06:36:04;16.60;99.90
46508;DHT22;32223;53.654;10.014;2023-07-13T06:38:30;16.70;99.90
46508;DHT22;32223;53.654;10.014;2023-07-13T06:40:56;16.70;99.90
46508;DHT22;32223;53.654;10.014;2023-07-13T06:43:22;16.80;99.90
46508;DHT22;32223;53.654;10.014;2023-07-13T06:45:48;17.00;99.90
46508;DHT22;32223;53.654;10.014;2023-07-13T06:48:16;17.10;99.90
46508;DHT22;32223;53.654;10.014;2023-07-13T06:50:43;17.20;99.90
46508;DHT22;32223;53.654;10.014;2023-07-13T06:53:10;17.30;99.90
46508;DHT22;32223;53.654;10.014;2023-07-13T06:55:36;17.40;99.90
46508;DHT22;32223;53.654;10.014;2023-07-13T06:58:01;17.50;99.90
46508;DHT22;32223;53.654;10.014;2023-07-13T07:00:27;17.50;99.90
46508;DHT22;32223;53.654;10.014;2023-07-13T07:02:52;17.60;99.90
46508;DHT22;32223;53.654;10.014;2023-07-13T07:05:18;17.70;99.90
46508;DHT22;32223;53.654;10.014;2023-07-13T07:07:50;17.70;99.90
46508;DHT22;32223;53.654;10.014;2023-07-13T07:10:16;17.70;99.90
46508;DHT22;32223;53.654;10.014;2023-07-13T07:12:42;17.70;99.90
46508;DHT22;32223;53.654;10.014;2023-07-13T07:15:08;17.70;99.90
46508;DHT22;32223;53.654;10.014;2023-07-13T07:17:33;17.80;99.90
46508;DHT22;32223;53.654;10.014;2023-07-13T07:19:59;17.90;99.90
46508;DHT22;32223;53.654;10.014;2023-07-13T07:22:25;18.00;99.90
46508;DHT22;32223;53.654;10.014;2023-07-13T07:24:53;18.00;99.90
46508;DHT22;32223;53.654;10.014;2023-07-13T07:27:20;17.90;99.90
46508;DHT22;32223;53.654;10.014;2023-07-13T07:29:46;17.90;99.90
46508;DHT22;32223;53.654;10.014;2023-07-13T07:32:11;17.80;99.90
46508;DHT22;32223;53.654;10.014;2023-07-13T07:34:37;17.90;99.90
46508;DHT22;32223;53.654;10.014;2023-07-13T07:37:03;18.00;99.90
46508;DHT22;32223;53.654;10.014;2023-07-13T07:39:29;18.10;99.90
46508;DHT22;32223;53.654;10.014;2023-07-13T07:41:55;18.10;99.90
46508;DHT22;32223;53.654;10.014;2023-07-13T07:44:20;18.20;99.90
46508;DHT22;32223;53.654;10.014;2023-07-13T07:46:46;18.30;99.90
46508;DHT22;32223;53.654;10.014;2023-07-13T07:49:12;18.40;99.90
46508;DHT22;32223;53.654;10.014;2023-07-13T07:51:38;18.50;99.90
46508;DHT22;32223;53.654;10.014;2023-07-13T07:54:04;18.60;99.90
46508;DHT22;32223;53.654;10.014;2023-07-13T07:56:31;18.70;99.90
46508;DHT22;32223;53.654;10.014;2023-07-13T07:58:56;18.70;99.90
46508;DHT22;32223;53.654;10.014;2023-07-13T08:01:22;18.60;99.90
46508;DHT22;32223;53.654;10.014;2023-07-13T08:03:48;18.70;99.90
46508;DHT22;32223;53.654;10.014;2023-07-13T08:06:14;18.80;99.90
46508;DHT22;32223;53.654;10.014;2023-07-13T08:08:40;19.00;99.90
46508;DHT22;32223;53.654;10.014;2023-07-13T08:11:06;19.40;99.90
46508;DHT22;32223;53.654;10.014;2023-07-13T08:13:33;19.50;99.90
46508;DHT22;32223;53.654;10.014;2023-07-13T08:15:59;19.60;99.90
46508;DHT22;32223;53.654;10.014;2023-07-13T08:18:25;19.60;99.90
46508;DHT22;32223;53.654;10.014;2023-07-13T08:20:50;19.60;99.90
46508;DHT22;32223;53.654;10.014;2023-07-13T08:23:16;19.70;99.90
46508;DHT22;32223;53.654;10.014;2023-07-13T08:25:42;19.60;99.90
46508;DHT22;32223;53.654;10.014;2023-07-13T08:28:08;19.50;99.90
46508;DHT22;32223;53.654;10.014;2023-07-13T08:30:34;19.60;99.90
46508;DHT22;32223;53.654;10.014;2023-07-13T08:32:59;19.70;99.90
46508;DHT22;32223;53.654;10.014;2023-07-13T08:35:25;19.80;99.90
46508;DHT22;32223;53.654;10.014;2023-07-13T08:37:51;20.00;99.90
46508;DHT22;32223;53.654;10.014;2023-07-13T08:40:17;20.00;99.90
46508;DHT22;32223;53.654;10.014;2023-07-13T08:42:48;19.80;99.90
46508;DHT22;32223;53.654;10.014;2023-07-13T08:45:26;19.70;99.90
46508;DHT22;32223;53.654;10.014;2023-07-13T08:48:10;19.60;99.90
46508;DHT22;32223;53.654;10.014;2023-07-13T08:53:15;19.50;99.90
46508;DHT22;32223;53.654;10.014;2023-07-13T08:55:42;19.70;99.90
46508;DHT22;32223;53.654;10.014;2023-07-13T08:58:16;19.90;99.90
46508;DHT22;32223;53.654;10.014;2023-07-13T09:09:44;20.10;99.90
46508;DHT22;32223;53.654;10.014;2023-07-13T09:14:55;20.10;99.90
46508;DHT22;32223;53.654;10.014;2023-07-13T09:17:33;20.10;99.90
46508;DHT22;32223;53.654;10.014;2023-07-13T09:20:27;20.10;99.90
46508;DHT22;32223;53.654;10.014;2023-07-13T09:22:55;20.20;99.90
46508;DHT22;32223;53.654;10.014;2023-07-13T09:25:29;20.50;99.90
46508;DHT22;32223;53.654;10.014;2023-07-13T09:28:00;20.70;99.90
46508;DHT22;32223;53.654;10.014;2023-07-13T09:30:37;20.90;99.90
46508;DHT22;32223;53.654;10.014;2023-07-13T09:33:04;21.10;99.90
46508;DHT22;32223;53.654;10.014;2023-07-13T09:35:30;21.20;99.90
46508;DHT22;32223;53.654;10.014;2023-07-13T09:38:18;21.10;99.90
46508;DHT22;32223;53.654;10.014;2023-07-13T09:41:19;21.30;99.90
46508;DHT22;32223;53.654;10.014;2023-07-13T09:44:08;21.40;99.90
46508;DHT22;32223;53.654;10.014;2023-07-13T09:46:35;21.20;99.90
46508;DHT22;32223;53.654;10.014;2023-07-13T09:49:00;21.30;99.90
46508;DHT22;32223;53.654;10.014;2023-07-13T09:51:26;21.40;99.90
46508;DHT22;32223;53.654;10.014;2023-07-13T09:53:52;21.40;99.90
46508;DHT22;32223;53.654;10.014;2023-07-13T09:56:22;21.50;99.90
46508;DHT22;32223;53.654;10.014;2023-07-13T09:58:48;21.60;99.90
46508;DHT22;32223;53.654;10.014;2023-07-13T10:01:14;21.50;99.90
46508;DHT22;32223;53.654;10.014;2023-07-13T10:03:53;21.60;99.90
46508;DHT22;32223;53.654;10.014;2023-07-13T10:06:20;21.60;99.90
46508;DHT22;32223;53.654;10.014;2023-07-13T10:08:50;21.50;99.90
46508;DHT22;32223;53.654;10.014;2023-07-13T10:11:26;21.40;99.90
46508;DHT22;32223;53.654;10.014;2023-07-13T10:13:53;21.10;99.90
46508;DHT22;32223;53.654;10.014;2023-07-13T10:16:21;20.90;99.90
46508;DHT22;32223;53.654;10.014;2023-07-13T10:18:56;20.90;99.90
46508;DHT22;32223;53.654;10.014;2023-07-13T10:21:23;21.20;99.90
46508;DHT22;32223;53.654;10.014;2023-07-13T10:23:58;21.50;99.90
46508;DHT22;32223;53.654;10.014;2023-07-13T10:26:29;21.80;99.90
46508;DHT22;32223;53.654;10.014;2023-07-13T10:29:00;22.10;99.90
46508;DHT22;32223;53.654;10.014;2023-07-13T10:31:27;22.30;99.90
46508;DHT22;32223;53.654;10.014;2023-07-13T10:33:52;22.30;99.90
46508;DHT22;32223;53.654;10.014;2023-07-13T10:36:33;22.70;99.90
46508;DHT22;32223;53.654;10.014;2023-07-13T10:39:02;22.80;99.90
46508;DHT22;32223;53.654;10.014;2023-07-13T10:41:31;23.00;99.90
46508;DHT22;32223;53.654;10.014;2023-07-13T10:43:58;22.90;99.90
46508;DHT22;32223;53.654;10.014;2023-07-13T10:46:26;22.90;99.90
46508;DHT22;32223;53.654;10.014;2023-07-13T10:49:01;22.90;99.90
46508;DHT22;32223;53.654;10.014;2023-07-13T10:51:29;23.10;99.90
46508;DHT22;32223;53.654;10.014;2023-07-13T10:56:43;23.20;99.90
46508;DHT22;32223;53.654;10.014;2023-07-13T10:59:10;23.10;99.90
46508;DHT22;32223;53.654;10.014;2023-07-13T11:01:58;23.00;99.90
46508;DHT22;32223;53.654;10.014;2023-07-13T11:04:46;23.00;99.90
46508;DHT22;32223;53.654;10.014;2023-07-13T11:07:26;23.10;99.90
46508;DHT22;32223;53.654;10.014;2023-07-13T11:10:03;22.90;99.90
46508;DHT22;32223;53.654;10.014;2023-07-13T11:12:49;22.70;99.90
46508;DHT22;32223;53.654;10.014;2023-07-13T11:15:29;22.50;99.90
46508;DHT22;32223;53.654;10.014;2023-07-13T11:17:56;22.40;99.90
46508;DHT22;32223;53.654;10.014;2023-07-13T11:20:39;22.40;99.90
46508;DHT22;32223;53.654;10.014;2023-07-13T11:25:38;22.60;99.90
46508;DHT22;32223;53.654;10.014;2023-07-13T11:30:41;22.80;99.90
46508;DHT22;32223;53.654;10.014;2023-07-13T11:38:20;22.70;99.90
46508;DHT22;32223;53.654;10.014;2023-07-13T11:40:47;22.70;99.90
46508;DHT22;32223;53.654;10.014;2023-07-13T11:43:15;23.00;99.90
46508;DHT22;32223;53.654;10.014;2023-07-13T11:45:42;23.00;99.90
46508;DHT22;32223;53.654;10.014;2023-07-13T11:48:22;23.00;99.90
46508;DHT22;32223;53.654;10.014;2023-07-13T11:50:57;23.00;99.90
46508;DHT22;32223;53.654;10.014;2023-07-13T11:53:27;23.30;99.90
46508;DHT22;32223;53.654;10.014;2023-07-13T11:55:53;23.50;99.90
46508;DHT22;32223;53.654;10.014;2023-07-13T11:58:23;23.70;99.90
46508;DHT22;32223;53.654;10.014;2023-07-13T12:00:49;24.00;99.90
46508;DHT22;32223;53.654;10.014;2023-07-13T12:03:20;24.20;99.90
46508;DHT22;32223;53.654;10.014;2023-07-13T12:06:03;23.90;99.90
46508;DHT22;32223;53.654;10.014;2023-07-13T12:08:31;23.40;99.90
46508;DHT22;32223;53.654;10.014;2023-07-13T12:11:03;22.80;99.90
46508;DHT22;32223;53.654;10.014;2023-07-13T12:13:37;22.20;99.90
46508;DHT22;32223;53.654;10.014;2023-07-13T12:16:11;21.50;99.90
46508;DHT22;32223;53.654;10.014;2023-07-13T12:18:37;20.90;99.90
46508;DHT22;32223;53.654;10.014;2023-07-13T12:21:04;20.20;99.90
46508;DHT22;32223;53.654;10.014;2023-07-13T12:23:33;19.60;99.90
46508;DHT22;32223;53.654;10.014;2023-07-13T12:26:02;19.00;99.90
46508;DHT22;32223;53.654;10.014;2023-07-13T12:30:59;18.10;99.90
46508;DHT22;32223;53.654;10.014;2023-07-13T12:33:28;17.80;99.90
46508;DHT22;32223;53.654;10.014;2023-07-13T12:35:55;17.60;99.90
46508;DHT22;32223;53.654;10.014;2023-07-13T12:38:21;17.50;99.90
46508;DHT22;32223;53.654;10.014;2023-07-13T12:40:50;17.50;99.90
46508;DHT22;32223;53.654;10.014;2023-07-13T12:43:17;17.60;99.90
46508;DHT22;32223;53.654;10.014;2023-07-13T12:46:05;17.90;99.90
46508;DHT22;32223;53.654;10.014;2023-07-13T12:48:42;18.40;99.90
46508;DHT22;32223;53.654;10.014;2023-07-13T12:51:12;18.90;99.90
46508;DHT22;32223;53.654;10.014;2023-07-13T12:53:43;19.80;99.90
46508;DHT22;32223;53.654;10.014;2023-07-13T12:56:19;20.30;99.90
46508;DHT22;32223;53.654;10.014;2023-07-13T12:58:47;20.90;99.90
46508;DHT22;32223;53.654;10.014;2023-07-13T13:01:22;21.10;99.90
46508;DHT22;32223;53.654;10.014;2023-07-13T13:03:52;21.40;99.90
46508;DHT22;32223;53.654;10.014;2023-07-13T13:08:46;21.80;99.90
46508;DHT22;32223;53.654;10.014;2023-07-13T13:11:17;21.40;99.90
46508;DHT22;32223;53.654;10.014;2023-07-13T13:13:43;21.30;99.90
46508;DHT22;32223;53.654;10.014;2023-07-13T13:16:14;21.00;99.90
46508;DHT22;32223;53.654;10.014;2023-07-13T13:18:42;20.70;99.90
46508;DHT22;32223;53.654;10.014;2023-07-13T13:21:09;20.40;99.90
46508;DHT22;32223;53.654;10.014;2023-07-13T13:23:35;20.20;99.90
46508;DHT22;32223;53.654;10.014;2023-07-13T13:26:02;20.00;99.90
46508;DHT22;32223;53.654;10.014;2023-07-13T13:28:29;20.00;99.90
46508;DHT22;32223;53.654;10.014;2023-07-13T13:30:55;20.20;99.90
46508;DHT22;32223;53.654;10.014;2023-07-13T13:33:21;20.50;99.90
46508;DHT22;32223;53.654;10.014;2023-07-13T13:35:47;20.50;99.90
46508;DHT22;32223;53.654;10.014;2023-07-13T13:38:19;20.30;99.90
46508;DHT22;32223;53.654;10.014;2023-07-13T13:40:46;20.20;99.90
46508;DHT22;32223;53.654;10.014;2023-07-13T13:43:22;20.10;99.90
46508;DHT22;32223;53.654;10.014;2023-07-13T13:45:52;20.10;99.90
46508;DHT22;32223;53.654;10.014;2023-07-13T13:48:20;20.30;99.90
46508;DHT22;32223;53.654;10.014;2023-07-13T13:50:48;20.30;99.90
46508;DHT22;32223;53.654;10.014;2023-07-13T13:53:14;20.30;99.90
46508;DHT22;32223;53.654;10.014;2023-07-13T13:55:40;20.20;99.90
46508;DHT22;32223;53.654;10.014;2023-07-13T13:58:10;20.10;99.90
46508;DHT22;32223;53.654;10.014;2023-07-13T14:00:37;20.00;99.90
46508;DHT22;32223;53.654;10.014;2023-07-13T14:03:03;19.80;99.90
46508;DHT22;32223;53.654;10.014;2023-07-13T14:05:29;19.80;99.90
46508;DHT22;32223;53.654;10.014;2023-07-13T14:07:55;20.00;99.90
46508;DHT22;32223;53.654;10.014;2023-07-13T14:10:22;20.10;99.90
46508;DHT22;32223;53.654;10.014;2023-07-13T14:12:51;20.60;99.90
46508;DHT22;32223;53.654;10.014;2023-07-13T14:15:22;21.60;99.90
46508;DHT22;32223;53.654;10.014;2023-07-13T14:17:48;22.10;99.90
46508;DHT22;32223;53.654;10.014;2023-07-13T14:20:18;22.90;99.90
46508;DHT22;32223;53.654;10.014;2023-07-13T14:22:46;23.40;99.90
46508;DHT22;32223;53.654;10.014;2023-07-13T14:25:12;23.30;99.90
46508;DHT22;32223;53.654;10.014;2023-07-13T14:27:39;22.80;99.90
46508;DHT22;32223;53.654;10.014;2023-07-13T14:30:13;22.30;99.90
46508;DHT22;32223;53.654;10.014;2023-07-13T14:32:39;22.20;99.90
46508;DHT22;32223;53.654;10.014;2023-07-13T14:35:05;22.20;99.90
46508;DHT22;32223;53.654;10.014;2023-07-13T14:37:31;22.00;99.90
46508;DHT22;32223;53.654;10.014;2023-07-13T14:39:57;22.20;99.90
46508;DHT22;32223;53.654;10.014;2023-07-13T14:42:26;22.20;99.90
46508;DHT22;32223;53.654;10.014;2023-07-13T14:44:55;22.10;99.90
46508;DHT22;32223;53.654;10.014;2023-07-13T14:47:21;21.80;99.90
46508;DHT22;32223;53.654;10.014;2023-07-13T14:49:47;21.60;99.90
46508;DHT22;32223;53.654;10.014;2023-07-13T14:52:18;21.60;99.90
46508;DHT22;32223;53.654;10.014;2023-07-13T14:54:52;22.00;99.90
46508;DHT22;32223;53.654;10.014;2023-07-13T14:57:19;22.60;99.90
46508;DHT22;32223;53.654;10.014;2023-07-13T14:59:45;22.90;99.90
46508;DHT22;32223;53.654;10.014;2023-07-13T15:04:40;22.80;99.90
46508;DHT22;32223;53.654;10.014;2023-07-13T15:07:10;22.50;99.90
46508;DHT22;32223;53.654;10.014;2023-07-13T15:09:35;22.80;99.90
46508;DHT22;32223;53.654;10.014;2023-07-13T15:12:01;23.20;99.90
46508;DHT22;32223;53.654;10.014;2023-07-13T15:14:27;23.30;99.90
46508;DHT22;32223;53.654;10.014;2023-07-13T15:16:55;23.20;99.90
46508;DHT22;32223;53.654;10.014;2023-07-13T15:19:21;23.60;99.90
46508;DHT22;32223;53.654;10.014;2023-07-13T15:21:49;25.00;99.90
46508;DHT22;32223;53.654;10.014;2023-07-13T15:24:15;26.20;99.90
46508;DHT22;32223;53.654;10.014;2023-07-13T15:26:42;27.20;99.90
46508;DHT22;32223;53.654;10.014;2023-07-13T15:29:11;27.40;99.90
46508;DHT22;32223;53.654;10.014;2023-07-13T15:31:37;26.80;99.90
46508;DHT22;32223;53.654;10.014;2023-07-13T15:34:11;26.10;99.90
46508;DHT22;32223;53.654;10.014;2023-07-13T15:36:37;25.20;99.90
46508;DHT22;32223;53.654;10.014;2023-07-13T15:39:08;24.40;99.90
46508;DHT22;32223;53.654;10.014;2023-07-13T15:41:38;24.10;99.90
46508;DHT22;32223;53.654;10.014;2023-07-13T15:44:25;24.00;99.90
46508;DHT22;32223;53.654;10.014;2023-07-13T15:46:58;24.20;99.90
46508;DHT22;32223;53.654;10.014;2023-07-13T15:49:34;25.20;99.90
46508;DHT22;32223;53.654;10.014;2023-07-13T15:52:23;25.40;99.90
46508;DHT22;32223;53.654;10.014;2023-07-13T15:54:52;25.20;99.90
46508;DHT22;32223;53.654;10.014;2023-07-13T15:57:23;25.50;99.90
46508;DHT22;32223;53.654;10.014;2023-07-13T15:59:49;25.20;99.90